Westbrook, Connecticut
Current Conditions -  °F | °C
As of 5:15 AM on Saturday 22 Nov 2014 (Local Time) from KSNC Reporting Station
Clear Clear  
Wind Chill: 25°   Ceiling: Unl
Heat Index: 25°   Visibility: 10mi
Dew Point: 12°   Wind: 3mph
Humidity: 59%   Direction: 270°W
Pressure: 30.44"   Gusts: NA
Location:  41.29°N, 72.45°W
Report Text: KSNC 221015Z AUTO 27003KT 10SM CLR M04/M11 A3044 RMK AO2
Loading
Personal Weather Stations






























Interactive Weather Map New forecast layout! Learn more

10-Day Weather Forecast

Advertisements
Track Severe Weather on mobile